sensor_id;sensor_type;location;lat;lon;timestamp;P1;durP1;ratioP1;P2;durP2;ratioP2
9264;SDS011;4669;49.594;10.958;2024-01-30T05:29:58;10.30;;;6.82;;
9264;SDS011;4669;49.594;10.958;2024-01-30T05:35:00;14.07;;;6.97;;
9264;SDS011;4669;49.594;10.958;2024-01-30T05:40:02;17.55;;;11.60;;
9264;SDS011;4669;49.594;10.958;2024-01-30T05:45:07;13.02;;;8.60;;
9264;SDS011;4669;49.594;10.958;2024-01-30T05:50:09;16.23;;;7.57;;
9264;SDS011;4669;49.594;10.958;2024-01-30T05:55:11;11.77;;;6.63;;
9264;SDS011;4669;49.594;10.958;2024-01-30T06:00:15;11.88;;;7.88;;
9264;SDS011;4669;49.594;10.958;2024-01-30T06:05:18;10.65;;;6.95;;
9264;SDS011;4669;49.594;10.958;2024-01-30T06:10:20;11.00;;;7.35;;
9264;SDS011;4669;49.594;10.958;2024-01-30T06:15:23;14.82;;;9.02;;
9264;SDS011;4669;49.594;10.958;2024-01-30T06:20:26;12.38;;;8.73;;
9264;SDS011;4669;49.594;10.958;2024-01-30T06:25:28;13.77;;;9.35;;
9264;SDS011;4669;49.594;10.958;2024-01-30T06:30:32;12.98;;;8.40;;
9264;SDS011;4669;49.594;10.958;2024-01-30T06:35:33;14.38;;;9.02;;
9264;SDS011;4669;49.594;10.958;2024-01-30T06:40:40;16.35;;;9.95;;
9264;SDS011;4669;49.594;10.958;2024-01-30T06:45:43;9.10;;;7.28;;
9264;SDS011;4669;49.594;10.958;2024-01-30T06:50:45;11.02;;;7.53;;
9264;SDS011;4669;49.594;10.958;2024-01-30T06:55:48;11.70;;;8.27;;
9264;SDS011;4669;49.594;10.958;2024-01-30T07:00:51;13.50;;;9.57;;
9264;SDS011;4669;49.594;10.958;2024-01-30T07:05:53;17.58;;;10.98;;
9264;SDS011;4669;49.594;10.958;2024-01-30T07:10:55;16.60;;;12.43;;
9264;SDS011;4669;49.594;10.958;2024-01-30T07:15:59;19.95;;;12.40;;
9264;SDS011;4669;49.594;10.958;2024-01-30T07:21:01;16.70;;;12.43;;
9264;SDS011;4669;49.594;10.958;2024-01-30T07:26:03;18.58;;;13.15;;
9264;SDS011;4669;49.594;10.958;2024-01-30T07:31:08;16.38;;;12.05;;
9264;SDS011;4669;49.594;10.958;2024-01-30T07:36:10;16.17;;;12.10;;
9264;SDS011;4669;49.594;10.958;2024-01-30T07:41:12;18.05;;;11.35;;
9264;SDS011;4669;49.594;10.958;2024-01-30T07:46:15;15.18;;;10.93;;
9264;SDS011;4669;49.594;10.958;2024-01-30T07:51:17;13.35;;;10.27;;
9264;SDS011;4669;49.594;10.958;2024-01-30T07:56:20;17.75;;;11.15;;
9264;SDS011;4669;49.594;10.958;2024-01-30T08:01:23;15.93;;;10.45;;
9264;SDS011;4669;49.594;10.958;2024-01-30T08:06:25;13.90;;;9.95;;
9264;SDS011;4669;49.594;10.958;2024-01-30T08:11:27;16.23;;;10.32;;
9264;SDS011;4669;49.594;10.958;2024-01-30T08:16:31;20.90;;;11.30;;
9264;SDS011;4669;49.594;10.958;2024-01-30T08:21:33;17.20;;;10.15;;
9264;SDS011;4669;49.594;10.958;2024-01-30T08:26:36;16.90;;;10.45;;
9264;SDS011;4669;49.594;10.958;2024-01-30T08:31:40;15.77;;;10.95;;
9264;SDS011;4669;49.594;10.958;2024-01-30T08:36:42;16.45;;;11.38;;
9264;SDS011;4669;49.594;10.958;2024-01-30T08:41:45;20.15;;;12.60;;
9264;SDS011;4669;49.594;10.958;2024-01-30T08:46:48;18.67;;;13.52;;
9264;SDS011;4669;49.594;10.958;2024-01-30T08:51:51;20.77;;;12.43;;
9264;SDS011;4669;49.594;10.958;2024-01-30T08:56:53;19.42;;;12.57;;
9264;SDS011;4669;49.594;10.958;2024-01-30T09:01:57;19.45;;;13.70;;
9264;SDS011;4669;49.594;10.958;2024-01-30T09:06:59;23.85;;;14.60;;
9264;SDS011;4669;49.594;10.958;2024-01-30T09:12:01;22.00;;;14.13;;
9264;SDS011;4669;49.594;10.958;2024-01-30T09:17:08;23.52;;;14.95;;
9264;SDS011;4669;49.594;10.958;2024-01-30T09:22:10;23.52;;;14.75;;
9264;SDS011;4669;49.594;10.958;2024-01-30T09:27:12;19.80;;;14.75;;
9264;SDS011;4669;49.594;10.958;2024-01-30T09:32:16;21.02;;;14.35;;
9264;SDS011;4669;49.594;10.958;2024-01-30T09:37:19;23.48;;;14.65;;
9264;SDS011;4669;49.594;10.958;2024-01-30T09:42:25;20.67;;;14.52;;
9264;SDS011;4669;49.594;10.958;2024-01-30T09:47:38;25.40;;;14.82;;
9264;SDS011;4669;49.594;10.958;2024-01-30T09:52:43;25.05;;;15.68;;
9264;SDS011;4669;49.594;10.958;2024-01-30T09:57:46;20.27;;;14.68;;
9264;SDS011;4669;49.594;10.958;2024-01-30T10:02:49;25.10;;;15.98;;
9264;SDS011;4669;49.594;10.958;2024-01-30T10:07:55;25.73;;;15.75;;
9264;SDS011;4669;49.594;10.958;2024-01-30T10:12:59;20.55;;;15.02;;
9264;SDS011;4669;49.594;10.958;2024-01-30T10:18:02;26.63;;;16.75;;
9264;SDS011;4669;49.594;10.958;2024-01-30T10:23:06;21.55;;;17.27;;
9264;SDS011;4669;49.594;10.958;2024-01-30T10:28:09;28.98;;;17.98;;
9264;SDS011;4669;49.594;10.958;2024-01-30T10:33:12;29.25;;;19.35;;
9264;SDS011;4669;49.594;10.958;2024-01-30T10:38:14;27.20;;;18.00;;
9264;SDS011;4669;49.594;10.958;2024-01-30T10:43:18;22.95;;;16.40;;
9264;SDS011;4669;49.594;10.958;2024-01-30T10:48:25;21.55;;;15.20;;
9264;SDS011;4669;49.594;10.958;2024-01-30T10:53:30;28.48;;;16.58;;
9264;SDS011;4669;49.594;10.958;2024-01-30T10:58:33;25.55;;;17.38;;
9264;SDS011;4669;49.594;10.958;2024-01-30T11:03:36;21.20;;;16.13;;
9264;SDS011;4669;49.594;10.958;2024-01-30T11:08:39;21.98;;;17.08;;
9264;SDS011;4669;49.594;10.958;2024-01-30T11:13:41;23.30;;;15.88;;
9264;SDS011;4669;49.594;10.958;2024-01-30T11:18:49;22.20;;;16.35;;
9264;SDS011;4669;49.594;10.958;2024-01-30T11:23:51;25.23;;;15.52;;
9264;SDS011;4669;49.594;10.958;2024-01-30T11:28:56;23.50;;;15.68;;
9264;SDS011;4669;49.594;10.958;2024-01-30T11:33:59;22.55;;;16.45;;
9264;SDS011;4669;49.594;10.958;2024-01-30T11:39:01;23.95;;;16.48;;
9264;SDS011;4669;49.594;10.958;2024-01-30T11:44:04;20.27;;;14.82;;
9264;SDS011;4669;49.594;10.958;2024-01-30T11:49:07;20.38;;;15.07;;
9264;SDS011;4669;49.594;10.958;2024-01-30T11:54:09;28.85;;;16.27;;
9264;SDS011;4669;49.594;10.958;2024-01-30T11:59:12;29.58;;;16.10;;
9264;SDS011;4669;49.594;10.958;2024-01-30T12:04:16;21.40;;;15.23;;
9264;SDS011;4669;49.594;10.958;2024-01-30T12:09:18;22.20;;;15.27;;
9264;SDS011;4669;49.594;10.958;2024-01-30T12:14:20;26.23;;;15.73;;
9264;SDS011;4669;49.594;10.958;2024-01-30T12:19:26;22.60;;;14.43;;
9264;SDS011;4669;49.594;10.958;2024-01-30T12:24:28;24.15;;;15.50;;
9264;SDS011;4669;49.594;10.958;2024-01-30T12:29:31;21.27;;;14.40;;
9264;SDS011;4669;49.594;10.958;2024-01-30T12:34:39;21.83;;;14.52;;
9264;SDS011;4669;49.594;10.958;2024-01-30T12:39:42;20.20;;;15.07;;
9264;SDS011;4669;49.594;10.958;2024-01-30T12:44:44;16.92;;;13.45;;
9264;SDS011;4669;49.594;10.958;2024-01-30T12:49:48;21.58;;;15.63;;
9264;SDS011;4669;49.594;10.958;2024-01-30T12:54:53;20.75;;;14.80;;
9264;SDS011;4669;49.594;10.958;2024-01-30T12:59:55;22.88;;;14.35;;
9264;SDS011;4669;49.594;10.958;2024-01-30T13:04:59;23.63;;;14.07;;
9264;SDS011;4669;49.594;10.958;2024-01-30T13:10:01;22.60;;;15.52;;
9264;SDS011;4669;49.594;10.958;2024-01-30T13:15:06;28.25;;;15.40;;
9264;SDS011;4669;49.594;10.958;2024-01-30T13:20:10;18.35;;;13.18;;
9264;SDS011;4669;49.594;10.958;2024-01-30T13:25:12;20.30;;;13.63;;
9264;SDS011;4669;49.594;10.958;2024-01-30T13:30:14;21.48;;;13.98;;
9264;SDS011;4669;49.594;10.958;2024-01-30T13:35:18;18.98;;;14.07;;
9264;SDS011;4669;49.594;10.958;2024-01-30T13:40:20;18.77;;;12.50;;
9264;SDS011;4669;49.594;10.958;2024-01-30T13:45:22;21.70;;;13.15;;
9264;SDS011;4669;49.594;10.958;2024-01-30T13:50:26;17.48;;;12.52;;
9264;SDS011;4669;49.594;10.958;2024-01-30T13:55:28;16.27;;;13.05;;
9264;SDS011;4669;49.594;10.958;2024-01-30T14:00:30;19.08;;;13.75;;
9264;SDS011;4669;49.594;10.958;2024-01-30T14:05:34;17.45;;;13.63;;
9264;SDS011;4669;49.594;10.958;2024-01-30T14:10:35;27.52;;;16.00;;
9264;SDS011;4669;49.594;10.958;2024-01-30T14:15:37;23.42;;;15.10;;
9264;SDS011;4669;49.594;10.958;2024-01-30T14:20:41;26.23;;;14.55;;
9264;SDS011;4669;49.594;10.958;2024-01-30T14:25:43;19.88;;;13.40;;
9264;SDS011;4669;49.594;10.958;2024-01-30T14:30:45;16.88;;;13.60;;
9264;SDS011;4669;49.594;10.958;2024-01-30T14:35:48;32.10;;;20.00;;
9264;SDS011;4669;49.594;10.958;2024-01-30T14:40:51;30.00;;;20.25;;
9264;SDS011;4669;49.594;10.958;2024-01-30T14:45:53;19.25;;;14.10;;
9264;SDS011;4669;49.594;10.958;2024-01-30T14:50:56;17.15;;;14.05;;
9264;SDS011;4669;49.594;10.958;2024-01-30T14:55:58;37.10;;;22.50;;
9264;SDS011;4669;49.594;10.958;2024-01-30T15:01:01;60.67;;;32.78;;
9264;SDS011;4669;49.594;10.958;2024-01-30T15:06:05;38.72;;;22.10;;
9264;SDS011;4669;49.594;10.958;2024-01-30T15:11:07;36.75;;;19.67;;
9264;SDS011;4669;49.594;10.958;2024-01-30T15:16:09;47.05;;;25.35;;
9264;SDS011;4669;49.594;10.958;2024-01-30T15:21:13;29.42;;;18.98;;
9264;SDS011;4669;49.594;10.958;2024-01-30T15:26:20;21.27;;;16.33;;
9264;SDS011;4669;49.594;10.958;2024-01-30T15:31:22;23.88;;;17.83;;
9264;SDS011;4669;49.594;10.958;2024-01-30T15:36:26;24.17;;;17.42;;
9264;SDS011;4669;49.594;10.958;2024-01-30T15:41:28;21.88;;;17.17;;
9264;SDS011;4669;49.594;10.958;2024-01-30T15:46:30;21.25;;;15.55;;
9264;SDS011;4669;49.594;10.958;2024-01-30T15:51:33;23.60;;;17.17;;
9264;SDS011;4669;49.594;10.958;2024-01-30T15:56:35;22.95;;;16.90;;
9264;SDS011;4669;49.594;10.958;2024-01-30T16:01:37;30.17;;;19.63;;
9264;SDS011;4669;49.594;10.958;2024-01-30T16:06:42;26.17;;;18.65;;
9264;SDS011;4669;49.594;10.958;2024-01-30T16:11:44;28.83;;;17.58;;
9264;SDS011;4669;49.594;10.958;2024-01-30T16:16:46;24.08;;;17.02;;
9264;SDS011;4669;49.594;10.958;2024-01-30T16:21:49;28.98;;;17.42;;
9264;SDS011;4669;49.594;10.958;2024-01-30T16:26:51;23.88;;;16.85;;
9264;SDS011;4669;49.594;10.958;2024-01-30T16:31:53;35.35;;;20.02;;
9264;SDS011;4669;49.594;10.958;2024-01-30T16:36:57;24.63;;;18.23;;
9264;SDS011;4669;49.594;10.958;2024-01-30T16:41:59;33.55;;;22.00;;
9264;SDS011;4669;49.594;10.958;2024-01-30T16:47:01;38.90;;;25.45;;
9264;SDS011;4669;49.594;10.958;2024-01-30T16:52:04;39.38;;;27.63;;
9264;SDS011;4669;49.594;10.958;2024-01-30T16:57:06;31.00;;;21.88;;
9264;SDS011;4669;49.594;10.958;2024-01-30T17:02:08;34.83;;;21.15;;
9264;SDS011;4669;49.594;10.958;2024-01-30T17:07:12;34.72;;;20.17;;
9264;SDS011;4669;49.594;10.958;2024-01-30T17:12:14;42.10;;;21.88;;
9264;SDS011;4669;49.594;10.958;2024-01-30T17:17:16;41.28;;;25.02;;
9264;SDS011;4669;49.594;10.958;2024-01-30T17:22:19;33.47;;;21.33;;
9264;SDS011;4669;49.594;10.958;2024-01-30T17:27:21;41.30;;;25.33;;
9264;SDS011;4669;49.594;10.958;2024-01-30T17:32:23;42.10;;;27.23;;
9264;SDS011;4669;49.594;10.958;2024-01-30T17:37:27;36.25;;;24.23;;
9264;SDS011;4669;49.594;10.958;2024-01-30T17:42:29;29.67;;;20.17;;
9264;SDS011;4669;49.594;10.958;2024-01-30T17:47:31;30.80;;;20.30;;
9264;SDS011;4669;49.594;10.958;2024-01-30T17:52:35;29.58;;;18.45;;
9264;SDS011;4669;49.594;10.958;2024-01-30T17:57:37;25.90;;;17.92;;
9264;SDS011;4669;49.594;10.958;2024-01-30T18:02:40;29.17;;;19.08;;
9264;SDS011;4669;49.594;10.958;2024-01-30T18:07:43;25.40;;;17.17;;
9264;SDS011;4669;49.594;10.958;2024-01-30T18:12:45;27.33;;;16.80;;
9264;SDS011;4669;49.594;10.958;2024-01-30T18:17:47;23.15;;;17.90;;
9264;SDS011;4669;49.594;10.958;2024-01-30T18:22:51;23.77;;;19.13;;
9264;SDS011;4669;49.594;10.958;2024-01-30T18:27:53;28.20;;;18.90;;
9264;SDS011;4669;49.594;10.958;2024-01-30T18:32:55;26.90;;;19.20;;
9264;SDS011;4669;49.594;10.958;2024-01-30T18:37:58;35.50;;;21.60;;
9264;SDS011;4669;49.594;10.958;2024-01-30T18:43:02;38.00;;;24.10;;
9264;SDS011;4669;49.594;10.958;2024-01-30T18:48:07;36.55;;;25.52;;
9264;SDS011;4669;49.594;10.958;2024-01-30T18:53:10;32.33;;;20.30;;
9264;SDS011;4669;49.594;10.958;2024-01-30T18:58:13;33.08;;;20.95;;
9264;SDS011;4669;49.594;10.958;2024-01-30T19:03:15;24.05;;;15.85;;
9264;SDS011;4669;49.594;10.958;2024-01-30T19:08:19;25.10;;;18.45;;
9264;SDS011;4669;49.594;10.958;2024-01-30T19:13:21;27.13;;;19.25;;
9264;SDS011;4669;49.594;10.958;2024-01-30T19:18:23;26.85;;;19.75;;
9264;SDS011;4669;49.594;10.958;2024-01-30T19:23:27;29.15;;;19.77;;
9264;SDS011;4669;49.594;10.958;2024-01-30T19:28:29;27.65;;;19.40;;
9264;SDS011;4669;49.594;10.958;2024-01-30T19:33:31;25.00;;;17.80;;
9264;SDS011;4669;49.594;10.958;2024-01-30T19:38:34;22.67;;;16.05;;
9264;SDS011;4669;49.594;10.958;2024-01-30T19:43:36;23.05;;;16.70;;
9264;SDS011;4669;49.594;10.958;2024-01-30T19:48:38;22.52;;;17.05;;
9264;SDS011;4669;49.594;10.958;2024-01-30T19:53:42;26.42;;;18.17;;
9264;SDS011;4669;49.594;10.958;2024-01-30T19:58:44;22.10;;;16.65;;
9264;SDS011;4669;49.594;10.958;2024-01-30T20:03:46;23.77;;;17.75;;
9264;SDS011;4669;49.594;10.958;2024-01-30T20:08:49;25.55;;;18.63;;
9264;SDS011;4669;49.594;10.958;2024-01-30T20:13:51;23.23;;;18.00;;
9264;SDS011;4669;49.594;10.958;2024-01-30T20:18:53;26.48;;;19.40;;
9264;SDS011;4669;49.594;10.958;2024-01-30T20:23:57;26.92;;;18.77;;
9264;SDS011;4669;49.594;10.958;2024-01-30T20:28:59;25.20;;;18.15;;
9264;SDS011;4669;49.594;10.958;2024-01-30T20:34:01;29.88;;;17.90;;
9264;SDS011;4669;49.594;10.958;2024-01-30T20:39:05;30.75;;;19.60;;
9264;SDS011;4669;49.594;10.958;2024-01-30T20:44:07;29.05;;;20.83;;
9264;SDS011;4669;49.594;10.958;2024-01-30T20:49:10;27.73;;;19.15;;
9264;SDS011;4669;49.594;10.958;2024-01-30T20:54:13;23.98;;;18.42;;
9264;SDS011;4669;49.594;10.958;2024-01-30T20:59:15;25.70;;;18.00;;
9264;SDS011;4669;49.594;10.958;2024-01-30T21:04:17;32.65;;;21.15;;
9264;SDS011;4669;49.594;10.958;2024-01-30T21:09:21;27.55;;;19.08;;
9264;SDS011;4669;49.594;10.958;2024-01-30T21:14:23;31.35;;;20.20;;
9264;SDS011;4669;49.594;10.958;2024-01-30T21:19:25;28.60;;;19.02;;
9264;SDS011;4669;49.594;10.958;2024-01-30T21:24:28;31.75;;;21.95;;
9264;SDS011;4669;49.594;10.958;2024-01-30T21:29:30;40.15;;;26.98;;
9264;SDS011;4669;49.594;10.958;2024-01-30T21:34:32;53.97;;;31.15;;
9264;SDS011;4669;49.594;10.958;2024-01-30T21:39:35;71.13;;;34.53;;
9264;SDS011;4669;49.594;10.958;2024-01-30T21:44:40;57.88;;;30.63;;
9264;SDS011;4669;49.594;10.958;2024-01-30T21:49:42;34.95;;;22.95;;
9264;SDS011;4669;49.594;10.958;2024-01-30T21:54:45;28.15;;;21.50;;
9264;SDS011;4669;49.594;10.958;2024-01-30T21:59:48;33.03;;;20.60;;
9264;SDS011;4669;49.594;10.958;2024-01-30T22:04:50;32.55;;;22.00;;
9264;SDS011;4669;49.594;10.958;2024-01-30T22:09:53;35.95;;;23.33;;
9264;SDS011;4669;49.594;10.958;2024-01-30T22:14:55;32.55;;;19.95;;
9264;SDS011;4669;49.594;10.958;2024-01-30T22:19:57;26.63;;;19.85;;
9264;SDS011;4669;49.594;10.958;2024-01-30T22:25:01;25.95;;;17.45;;
9264;SDS011;4669;49.594;10.958;2024-01-30T22:30:03;26.77;;;18.70;;
9264;SDS011;4669;49.594;10.958;2024-01-30T22:35:06;24.63;;;17.85;;
9264;SDS011;4669;49.594;10.958;2024-01-30T22:40:12;23.17;;;16.90;;
9264;SDS011;4669;49.594;10.958;2024-01-30T22:45:14;25.83;;;17.33;;
9264;SDS011;4669;49.594;10.958;2024-01-30T22:50:16;43.35;;;26.25;;
9264;SDS011;4669;49.594;10.958;2024-01-30T22:55:19;39.58;;;25.17;;
